sensor_id;sensor_type;location;lat;lon;timestamp;P1;durP1;ratioP1;P2;durP2;ratioP2
73729;SDS011;62036;48.128;16.458;2023-03-01T00:01:34;22.83;;;10.85;;
73729;SDS011;62036;48.128;16.458;2023-03-01T00:04:00;17.60;;;10.38;;
73729;SDS011;62036;48.128;16.458;2023-03-01T00:08:52;18.92;;;9.73;;
73729;SDS011;62036;48.128;16.458;2023-03-01T00:13:44;22.75;;;10.40;;
73729;SDS011;62036;48.128;16.458;2023-03-01T00:16:12;20.55;;;9.88;;
73729;SDS011;62036;48.128;16.458;2023-03-01T00:18:38;20.17;;;9.65;;
73729;SDS011;62036;48.128;16.458;2023-03-01T00:21:05;18.30;;;9.85;;
73729;SDS011;62036;48.128;16.458;2023-03-01T00:23:31;16.90;;;8.45;;
73729;SDS011;62036;48.128;16.458;2023-03-01T00:25:59;20.17;;;9.63;;
73729;SDS011;62036;48.128;16.458;2023-03-01T00:28:24;21.88;;;10.43;;
73729;SDS011;62036;48.128;16.458;2023-03-01T00:30:50;20.10;;;9.98;;
73729;SDS011;62036;48.128;16.458;2023-03-01T00:33:17;21.13;;;10.60;;
73729;SDS011;62036;48.128;16.458;2023-03-01T00:35:43;21.17;;;11.13;;
73729;SDS011;62036;48.128;16.458;2023-03-01T00:38:09;19.77;;;9.90;;
73729;SDS011;62036;48.128;16.458;2023-03-01T00:40:35;17.90;;;9.95;;
73729;SDS011;62036;48.128;16.458;2023-03-01T00:43:01;21.33;;;10.52;;
73729;SDS011;62036;48.128;16.458;2023-03-01T00:45:27;22.73;;;11.38;;
73729;SDS011;62036;48.128;16.458;2023-03-01T00:47:54;19.25;;;10.02;;
73729;SDS011;62036;48.128;16.458;2023-03-01T00:52:46;21.88;;;9.30;;
73729;SDS011;62036;48.128;16.458;2023-03-01T00:57:38;16.50;;;8.95;;
73729;SDS011;62036;48.128;16.458;2023-03-01T01:00:05;20.88;;;9.40;;
73729;SDS011;62036;48.128;16.458;2023-03-01T01:02:32;20.38;;;10.60;;
73729;SDS011;62036;48.128;16.458;2023-03-01T01:04:58;16.52;;;9.60;;
73729;SDS011;62036;48.128;16.458;2023-03-01T01:09:50;18.38;;;9.50;;
73729;SDS011;62036;48.128;16.458;2023-03-01T01:12:16;18.98;;;10.02;;
73729;SDS011;62036;48.128;16.458;2023-03-01T01:14:42;17.80;;;9.82;;
73729;SDS011;62036;48.128;16.458;2023-03-01T01:17:08;17.05;;;9.95;;
73729;SDS011;62036;48.128;16.458;2023-03-01T01:19:35;20.38;;;9.63;;
73729;SDS011;62036;48.128;16.458;2023-03-01T01:22:01;21.02;;;10.30;;
73729;SDS011;62036;48.128;16.458;2023-03-01T01:24:28;19.35;;;10.77;;
73729;SDS011;62036;48.128;16.458;2023-03-01T01:26:54;19.33;;;10.70;;
73729;SDS011;62036;48.128;16.458;2023-03-01T01:29:20;19.30;;;9.85;;
73729;SDS011;62036;48.128;16.458;2023-03-01T01:31:46;19.30;;;9.45;;
73729;SDS011;62036;48.128;16.458;2023-03-01T01:34:13;14.80;;;9.23;;
73729;SDS011;62036;48.128;16.458;2023-03-01T01:36:40;20.23;;;10.32;;
73729;SDS011;62036;48.128;16.458;2023-03-01T01:39:06;19.67;;;10.48;;
73729;SDS011;62036;48.128;16.458;2023-03-01T01:41:32;18.50;;;10.32;;
73729;SDS011;62036;48.128;16.458;2023-03-01T01:44:15;19.92;;;10.57;;
73729;SDS011;62036;48.128;16.458;2023-03-01T01:52:16;18.30;;;9.88;;
73729;SDS011;62036;48.128;16.458;2023-03-01T01:57:16;21.75;;;10.90;;
73729;SDS011;62036;48.128;16.458;2023-03-01T01:59:45;21.77;;;10.80;;
73729;SDS011;62036;48.128;16.458;2023-03-01T02:02:13;22.83;;;10.23;;
73729;SDS011;62036;48.128;16.458;2023-03-01T02:04:39;20.52;;;9.35;;
73729;SDS011;62036;48.128;16.458;2023-03-01T02:07:15;24.17;;;11.10;;
73729;SDS011;62036;48.128;16.458;2023-03-01T02:09:43;19.23;;;9.80;;
73729;SDS011;62036;48.128;16.458;2023-03-01T02:12:10;21.67;;;11.15;;
73729;SDS011;62036;48.128;16.458;2023-03-01T02:17:02;19.25;;;9.90;;
73729;SDS011;62036;48.128;16.458;2023-03-01T02:24:47;17.58;;;9.20;;
73729;SDS011;62036;48.128;16.458;2023-03-01T02:27:15;23.52;;;9.68;;
73729;SDS011;62036;48.128;16.458;2023-03-01T02:29:42;20.58;;;10.93;;
73729;SDS011;62036;48.128;16.458;2023-03-01T02:32:09;19.85;;;10.00;;
73729;SDS011;62036;48.128;16.458;2023-03-01T02:34:36;20.85;;;10.23;;
73729;SDS011;62036;48.128;16.458;2023-03-01T02:37:04;22.63;;;11.45;;
73729;SDS011;62036;48.128;16.458;2023-03-01T02:39:33;21.88;;;11.18;;
73729;SDS011;62036;48.128;16.458;2023-03-01T02:42:00;17.88;;;10.80;;
73729;SDS011;62036;48.128;16.458;2023-03-01T02:44:28;20.75;;;10.52;;
73729;SDS011;62036;48.128;16.458;2023-03-01T02:46:55;24.40;;;10.20;;
73729;SDS011;62036;48.128;16.458;2023-03-01T02:56:48;18.67;;;10.30;;
73729;SDS011;62036;48.128;16.458;2023-03-01T02:59:16;23.95;;;11.70;;
73729;SDS011;62036;48.128;16.458;2023-03-01T03:01:43;22.17;;;11.63;;
73729;SDS011;62036;48.128;16.458;2023-03-01T03:06:35;16.85;;;8.85;;
73729;SDS011;62036;48.128;16.458;2023-03-01T03:09:03;20.67;;;9.45;;
73729;SDS011;62036;48.128;16.458;2023-03-01T03:11:29;21.38;;;9.13;;
73729;SDS011;62036;48.128;16.458;2023-03-01T03:13:55;21.58;;;9.50;;
73729;SDS011;62036;48.128;16.458;2023-03-01T03:16:23;19.02;;;9.73;;
73729;SDS011;62036;48.128;16.458;2023-03-01T03:18:50;18.02;;;10.02;;
73729;SDS011;62036;48.128;16.458;2023-03-01T03:23:42;18.17;;;9.23;;
73729;SDS011;62036;48.128;16.458;2023-03-01T03:26:08;23.70;;;10.93;;
73729;SDS011;62036;48.128;16.458;2023-03-01T03:28:38;20.98;;;12.23;;
73729;SDS011;62036;48.128;16.458;2023-03-01T03:31:05;25.20;;;11.15;;
73729;SDS011;62036;48.128;16.458;2023-03-01T03:33:31;25.65;;;11.70;;
73729;SDS011;62036;48.128;16.458;2023-03-01T03:35:58;17.95;;;10.80;;
73729;SDS011;62036;48.128;16.458;2023-03-01T03:41:03;29.33;;;12.05;;
73729;SDS011;62036;48.128;16.458;2023-03-01T03:43:30;22.08;;;11.40;;
73729;SDS011;62036;48.128;16.458;2023-03-01T03:45:57;26.05;;;13.27;;
73729;SDS011;62036;48.128;16.458;2023-03-01T03:48:25;25.58;;;12.88;;
73729;SDS011;62036;48.128;16.458;2023-03-01T03:50:55;23.00;;;12.25;;
73729;SDS011;62036;48.128;16.458;2023-03-01T03:53:22;26.38;;;12.88;;
73729;SDS011;62036;48.128;16.458;2023-03-01T03:55:48;25.35;;;12.15;;
73729;SDS011;62036;48.128;16.458;2023-03-01T03:58:16;30.75;;;15.57;;
73729;SDS011;62036;48.128;16.458;2023-03-01T04:00:44;28.42;;;14.82;;
73729;SDS011;62036;48.128;16.458;2023-03-01T04:03:11;28.02;;;14.27;;
73729;SDS011;62036;48.128;16.458;2023-03-01T04:05:37;31.17;;;14.77;;
73729;SDS011;62036;48.128;16.458;2023-03-01T04:08:04;31.38;;;13.00;;
73729;SDS011;62036;48.128;16.458;2023-03-01T04:10:37;30.60;;;14.73;;
73729;SDS011;62036;48.128;16.458;2023-03-01T04:13:03;28.88;;;14.77;;
73729;SDS011;62036;48.128;16.458;2023-03-01T04:15:30;29.25;;;14.27;;
73729;SDS011;62036;48.128;16.458;2023-03-01T04:17:57;28.88;;;14.20;;
73729;SDS011;62036;48.128;16.458;2023-03-01T04:20:25;28.98;;;14.60;;
73729;SDS011;62036;48.128;16.458;2023-03-01T04:22:52;28.73;;;14.93;;
73729;SDS011;62036;48.128;16.458;2023-03-01T04:25:18;31.92;;;14.48;;
73729;SDS011;62036;48.128;16.458;2023-03-01T04:27:44;28.50;;;14.30;;
73729;SDS011;62036;48.128;16.458;2023-03-01T04:32:36;28.38;;;14.15;;
73729;SDS011;62036;48.128;16.458;2023-03-01T04:37:29;24.70;;;12.02;;
73729;SDS011;62036;48.128;16.458;2023-03-01T04:42:21;26.42;;;13.15;;
73729;SDS011;62036;48.128;16.458;2023-03-01T04:47:16;22.40;;;13.02;;
73729;SDS011;62036;48.128;16.458;2023-03-01T04:49:42;29.13;;;14.02;;
73729;SDS011;62036;48.128;16.458;2023-03-01T04:52:08;27.23;;;12.27;;
73729;SDS011;62036;48.128;16.458;2023-03-01T04:54:34;30.30;;;14.20;;
73729;SDS011;62036;48.128;16.458;2023-03-01T04:57:01;25.13;;;14.20;;
73729;SDS011;62036;48.128;16.458;2023-03-01T04:59:28;28.73;;;14.68;;
73729;SDS011;62036;48.128;16.458;2023-03-01T05:01:56;27.02;;;13.75;;
73729;SDS011;62036;48.128;16.458;2023-03-01T05:04:23;33.47;;;14.20;;
73729;SDS011;62036;48.128;16.458;2023-03-01T05:06:49;33.65;;;13.93;;
73729;SDS011;62036;48.128;16.458;2023-03-01T05:09:15;26.38;;;13.30;;
73729;SDS011;62036;48.128;16.458;2023-03-01T05:11:42;27.98;;;14.55;;
73729;SDS011;62036;48.128;16.458;2023-03-01T05:14:08;30.73;;;14.80;;
73729;SDS011;62036;48.128;16.458;2023-03-01T05:16:35;28.45;;;13.18;;
73729;SDS011;62036;48.128;16.458;2023-03-01T05:19:02;31.02;;;13.35;;
73729;SDS011;62036;48.128;16.458;2023-03-01T05:21:40;25.98;;;13.63;;
73729;SDS011;62036;48.128;16.458;2023-03-01T05:24:26;35.00;;;15.57;;
73729;SDS011;62036;48.128;16.458;2023-03-01T05:26:53;29.77;;;13.40;;
73729;SDS011;62036;48.128;16.458;2023-03-01T05:29:19;30.67;;;14.60;;
73729;SDS011;62036;48.128;16.458;2023-03-01T05:31:51;31.38;;;15.02;;
73729;SDS011;62036;48.128;16.458;2023-03-01T05:34:17;32.38;;;14.85;;
73729;SDS011;62036;48.128;16.458;2023-03-01T05:36:43;31.45;;;15.40;;
73729;SDS011;62036;48.128;16.458;2023-03-01T05:41:35;29.05;;;14.20;;
73729;SDS011;62036;48.128;16.458;2023-03-01T05:46:29;24.50;;;11.95;;
73729;SDS011;62036;48.128;16.458;2023-03-01T05:51:21;30.33;;;12.90;;
73729;SDS011;62036;48.128;16.458;2023-03-01T05:53:47;31.90;;;14.75;;
73729;SDS011;62036;48.128;16.458;2023-03-01T05:56:13;25.05;;;12.98;;
73729;SDS011;62036;48.128;16.458;2023-03-01T05:58:39;31.15;;;14.60;;
73729;SDS011;62036;48.128;16.458;2023-03-01T06:01:05;25.88;;;14.15;;
73729;SDS011;62036;48.128;16.458;2023-03-01T06:03:36;32.90;;;14.18;;
73729;SDS011;62036;48.128;16.458;2023-03-01T06:08:28;23.77;;;12.73;;
73729;SDS011;62036;48.128;16.458;2023-03-01T06:10:54;29.92;;;14.35;;
73729;SDS011;62036;48.128;16.458;2023-03-01T06:13:21;34.42;;;16.35;;
73729;SDS011;62036;48.128;16.458;2023-03-01T06:15:48;31.17;;;14.40;;
73729;SDS011;62036;48.128;16.458;2023-03-01T06:18:14;29.63;;;14.85;;
73729;SDS011;62036;48.128;16.458;2023-03-01T06:20:40;34.45;;;15.02;;
73729;SDS011;62036;48.128;16.458;2023-03-01T06:23:06;35.88;;;15.88;;
73729;SDS011;62036;48.128;16.458;2023-03-01T06:27:58;30.58;;;13.90;;
73729;SDS011;62036;48.128;16.458;2023-03-01T06:30:25;31.45;;;15.02;;
73729;SDS011;62036;48.128;16.458;2023-03-01T06:32:51;31.65;;;14.95;;
73729;SDS011;62036;48.128;16.458;2023-03-01T06:35:17;32.53;;;14.75;;
73729;SDS011;62036;48.128;16.458;2023-03-01T06:37:44;34.00;;;12.90;;
73729;SDS011;62036;48.128;16.458;2023-03-01T06:40:10;33.70;;;13.57;;
73729;SDS011;62036;48.128;16.458;2023-03-01T06:42:37;25.88;;;12.73;;
73729;SDS011;62036;48.128;16.458;2023-03-01T06:45:04;31.35;;;12.93;;
73729;SDS011;62036;48.128;16.458;2023-03-01T06:47:31;27.90;;;14.20;;
73729;SDS011;62036;48.128;16.458;2023-03-01T06:49:58;33.67;;;15.40;;
73729;SDS011;62036;48.128;16.458;2023-03-01T06:52:24;28.67;;;14.57;;
73729;SDS011;62036;48.128;16.458;2023-03-01T06:54:50;39.65;;;17.17;;
73729;SDS011;62036;48.128;16.458;2023-03-01T06:57:16;30.58;;;14.93;;
73729;SDS011;62036;48.128;16.458;2023-03-01T06:59:42;31.05;;;14.60;;
73729;SDS011;62036;48.128;16.458;2023-03-01T07:04:34;26.08;;;12.82;;
73729;SDS011;62036;48.128;16.458;2023-03-01T07:07:01;29.35;;;14.85;;
73729;SDS011;62036;48.128;16.458;2023-03-01T07:09:27;33.22;;;16.33;;
73729;SDS011;62036;48.128;16.458;2023-03-01T07:11:53;29.95;;;14.02;;
73729;SDS011;62036;48.128;16.458;2023-03-01T07:14:19;28.80;;;13.98;;
73729;SDS011;62036;48.128;16.458;2023-03-01T07:16:45;31.15;;;14.73;;
73729;SDS011;62036;48.128;16.458;2023-03-01T07:19:11;33.03;;;14.50;;
73729;SDS011;62036;48.128;16.458;2023-03-01T07:21:37;29.63;;;15.85;;
73729;SDS011;62036;48.128;16.458;2023-03-01T07:24:05;27.33;;;13.93;;
73729;SDS011;62036;48.128;16.458;2023-03-01T07:26:31;32.90;;;14.82;;
73729;SDS011;62036;48.128;16.458;2023-03-01T07:29:00;30.17;;;12.57;;
73729;SDS011;62036;48.128;16.458;2023-03-01T07:31:26;29.50;;;14.98;;
73729;SDS011;62036;48.128;16.458;2023-03-01T07:33:53;27.58;;;13.85;;
73729;SDS011;62036;48.128;16.458;2023-03-01T07:36:19;34.83;;;13.52;;
73729;SDS011;62036;48.128;16.458;2023-03-01T07:38:45;28.00;;;13.55;;
73729;SDS011;62036;48.128;16.458;2023-03-01T07:41:11;27.20;;;14.48;;
73729;SDS011;62036;48.128;16.458;2023-03-01T07:43:38;34.47;;;14.82;;
73729;SDS011;62036;48.128;16.458;2023-03-01T07:46:04;31.65;;;14.80;;
73729;SDS011;62036;48.128;16.458;2023-03-01T07:48:31;30.10;;;15.25;;
73729;SDS011;62036;48.128;16.458;2023-03-01T07:51:01;27.63;;;13.20;;
73729;SDS011;62036;48.128;16.458;2023-03-01T07:53:27;29.23;;;13.02;;
73729;SDS011;62036;48.128;16.458;2023-03-01T07:56:11;26.95;;;14.00;;
73729;SDS011;62036;48.128;16.458;2023-03-01T07:58:38;23.98;;;12.77;;
73729;SDS011;62036;48.128;16.458;2023-03-01T08:01:05;27.80;;;14.18;;
73729;SDS011;62036;48.128;16.458;2023-03-01T08:03:32;29.58;;;13.90;;
73729;SDS011;62036;48.128;16.458;2023-03-01T08:06:01;25.45;;;13.88;;
73729;SDS011;62036;48.128;16.458;2023-03-01T08:08:28;28.17;;;13.35;;
73729;SDS011;62036;48.128;16.458;2023-03-01T08:10:57;32.40;;;14.90;;
73729;SDS011;62036;48.128;16.458;2023-03-01T08:13:23;32.05;;;14.68;;
73729;SDS011;62036;48.128;16.458;2023-03-01T08:15:49;36.42;;;13.73;;
73729;SDS011;62036;48.128;16.458;2023-03-01T08:18:16;32.45;;;14.60;;
73729;SDS011;62036;48.128;16.458;2023-03-01T08:20:42;30.25;;;13.63;;
73729;SDS011;62036;48.128;16.458;2023-03-01T08:23:08;30.00;;;15.50;;
73729;SDS011;62036;48.128;16.458;2023-03-01T08:25:34;30.77;;;14.32;;
73729;SDS011;62036;48.128;16.458;2023-03-01T08:28:00;32.92;;;13.93;;
73729;SDS011;62036;48.128;16.458;2023-03-01T08:30:26;40.45;;;16.77;;
73729;SDS011;62036;48.128;16.458;2023-03-01T08:32:52;39.88;;;19.02;;
73729;SDS011;62036;48.128;16.458;2023-03-01T08:35:19;32.40;;;15.45;;
73729;SDS011;62036;48.128;16.458;2023-03-01T08:37:45;33.00;;;17.80;;
73729;SDS011;62036;48.128;16.458;2023-03-01T08:40:11;35.13;;;15.43;;
73729;SDS011;62036;48.128;16.458;2023-03-01T08:42:38;33.85;;;16.23;;
73729;SDS011;62036;48.128;16.458;2023-03-01T08:45:04;30.52;;;16.55;;
73729;SDS011;62036;48.128;16.458;2023-03-01T08:47:31;28.83;;;15.18;;
73729;SDS011;62036;48.128;16.458;2023-03-01T08:49:58;33.55;;;15.15;;
73729;SDS011;62036;48.128;16.458;2023-03-01T08:52:24;30.35;;;13.98;;
73729;SDS011;62036;48.128;16.458;2023-03-01T08:54:51;31.55;;;14.90;;
73729;SDS011;62036;48.128;16.458;2023-03-01T08:57:17;31.40;;;15.50;;
73729;SDS011;62036;48.128;16.458;2023-03-01T08:59:43;36.28;;;15.50;;
73729;SDS011;62036;48.128;16.458;2023-03-01T09:02:13;35.65;;;15.30;;
73729;SDS011;62036;48.128;16.458;2023-03-01T09:04:39;26.65;;;15.57;;
73729;SDS011;62036;48.128;16.458;2023-03-01T09:07:05;29.33;;;14.55;;
73729;SDS011;62036;48.128;16.458;2023-03-01T09:09:32;35.45;;;14.20;;
73729;SDS011;62036;48.128;16.458;2023-03-01T09:11:58;30.80;;;14.60;;
73729;SDS011;62036;48.128;16.458;2023-03-01T09:14:24;30.92;;;15.18;;
73729;SDS011;62036;48.128;16.458;2023-03-01T09:16:50;26.63;;;13.75;;
73729;SDS011;62036;48.128;16.458;2023-03-01T09:19:16;31.85;;;14.82;;
73729;SDS011;62036;48.128;16.458;2023-03-01T09:21:42;28.90;;;14.55;;
73729;SDS011;62036;48.128;16.458;2023-03-01T09:24:17;30.05;;;14.43;;
73729;SDS011;62036;48.128;16.458;2023-03-01T09:26:44;32.78;;;16.02;;
73729;SDS011;62036;48.128;16.458;2023-03-01T09:29:13;30.65;;;15.80;;
73729;SDS011;62036;48.128;16.458;2023-03-01T09:31:40;28.25;;;15.80;;
73729;SDS011;62036;48.128;16.458;2023-03-01T09:34:06;31.67;;;14.85;;
73729;SDS011;62036;48.128;16.458;2023-03-01T09:36:32;31.92;;;14.90;;
73729;SDS011;62036;48.128;16.458;2023-03-01T09:38:59;30.77;;;15.63;;
73729;SDS011;62036;48.128;16.458;2023-03-01T09:46:44;26.52;;;11.80;;
73729;SDS011;62036;48.128;16.458;2023-03-01T09:49:15;30.60;;;14.68;;
73729;SDS011;62036;48.128;16.458;2023-03-01T09:51:43;27.75;;;13.30;;
73729;SDS011;62036;48.128;16.458;2023-03-01T09:54:14;25.73;;;12.70;;
73729;SDS011;62036;48.128;16.458;2023-03-01T09:56:41;26.65;;;14.93;;
73729;SDS011;62036;48.128;16.458;2023-03-01T10:01:59;24.30;;;13.80;;
73729;SDS011;62036;48.128;16.458;2023-03-01T10:04:45;30.30;;;13.32;;
73729;SDS011;62036;48.128;16.458;2023-03-01T10:09:42;21.90;;;13.23;;
73729;SDS011;62036;48.128;16.458;2023-03-01T10:12:20;24.35;;;13.02;;
73729;SDS011;62036;48.128;16.458;2023-03-01T10:17:20;26.75;;;12.52;;
73729;SDS011;62036;48.128;16.458;2023-03-01T10:19:50;25.90;;;13.63;;
73729;SDS011;62036;48.128;16.458;2023-03-01T10:24:42;22.98;;;13.40;;
73729;SDS011;62036;48.128;16.458;2023-03-01T10:27:13;25.15;;;12.88;;
73729;SDS011;62036;48.128;16.458;2023-03-01T10:29:49;26.40;;;12.73;;
73729;SDS011;62036;48.128;16.458;2023-03-01T10:32:17;24.58;;;12.68;;
73729;SDS011;62036;48.128;16.458;2023-03-01T10:34:44;24.50;;;13.05;;
73729;SDS011;62036;48.128;16.458;2023-03-01T10:39:36;28.55;;;12.40;;
73729;SDS011;62036;48.128;16.458;2023-03-01T10:42:03;20.40;;;11.82;;
73729;SDS011;62036;48.128;16.458;2023-03-01T10:49:27;21.70;;;11.73;;
73729;SDS011;62036;48.128;16.458;2023-03-01T10:51:54;22.00;;;11.73;;
73729;SDS011;62036;48.128;16.458;2023-03-01T10:56:56;22.60;;;12.05;;
73729;SDS011;62036;48.128;16.458;2023-03-01T10:59:25;24.30;;;12.15;;
73729;SDS011;62036;48.128;16.458;2023-03-01T11:02:00;23.83;;;11.00;;
73729;SDS011;62036;48.128;16.458;2023-03-01T11:04:26;20.13;;;10.20;;
73729;SDS011;62036;48.128;16.458;2023-03-01T11:06:59;19.63;;;9.95;;
73729;SDS011;62036;48.128;16.458;2023-03-01T11:09:26;18.55;;;11.38;;
73729;SDS011;62036;48.128;16.458;2023-03-01T11:12:02;20.65;;;11.27;;
73729;SDS011;62036;48.128;16.458;2023-03-01T11:14:33;19.80;;;10.48;;
73729;SDS011;62036;48.128;16.458;2023-03-01T11:22:28;18.90;;;9.98;;
73729;SDS011;62036;48.128;16.458;2023-03-01T11:24:55;19.35;;;10.50;;
73729;SDS011;62036;48.128;16.458;2023-03-01T11:27:26;18.52;;;10.35;;
73729;SDS011;62036;48.128;16.458;2023-03-01T11:30:01;19.92;;;10.25;;
73729;SDS011;62036;48.128;16.458;2023-03-01T11:32:31;17.92;;;9.65;;
73729;SDS011;62036;48.128;16.458;2023-03-01T11:35:03;17.95;;;8.90;;
73729;SDS011;62036;48.128;16.458;2023-03-01T11:40:33;15.00;;;8.60;;
73729;SDS011;62036;48.128;16.458;2023-03-01T11:43:12;15.52;;;9.15;;
73729;SDS011;62036;48.128;16.458;2023-03-01T11:45:51;17.05;;;8.35;;
73729;SDS011;62036;48.128;16.458;2023-03-01T11:50:50;20.05;;;9.95;;
73729;SDS011;62036;48.128;16.458;2023-03-01T12:06:14;22.75;;;11.25;;
73729;SDS011;62036;48.128;16.458;2023-03-01T12:19:19;21.15;;;11.25;;
73729;SDS011;62036;48.128;16.458;2023-03-01T12:29:42;21.48;;;10.95;;
73729;SDS011;62036;48.128;16.458;2023-03-01T12:32:15;19.40;;;10.38;;
73729;SDS011;62036;48.128;16.458;2023-03-01T12:34:54;19.75;;;10.43;;
73729;SDS011;62036;48.128;16.458;2023-03-01T12:47:40;18.65;;;10.45;;
73729;SDS011;62036;48.128;16.458;2023-03-01T12:50:31;21.65;;;10.75;;
73729;SDS011;62036;48.128;16.458;2023-03-01T12:52:58;21.02;;;10.48;;
73729;SDS011;62036;48.128;16.458;2023-03-01T12:55:26;17.05;;;10.07;;
73729;SDS011;62036;48.128;16.458;2023-03-01T12:57:59;19.50;;;10.38;;
73729;SDS011;62036;48.128;16.458;2023-03-01T13:10:52;19.27;;;9.55;;
73729;SDS011;62036;48.128;16.458;2023-03-01T13:15:45;15.57;;;9.35;;
73729;SDS011;62036;48.128;16.458;2023-03-01T13:20:49;18.30;;;9.75;;
73729;SDS011;62036;48.128;16.458;2023-03-01T13:28:36;17.88;;;9.40;;
73729;SDS011;62036;48.128;16.458;2023-03-01T13:31:04;18.63;;;9.75;;
73729;SDS011;62036;48.128;16.458;2023-03-01T13:35:56;16.10;;;8.57;;
73729;SDS011;62036;48.128;16.458;2023-03-01T13:41:16;15.48;;;9.55;;
73729;SDS011;62036;48.128;16.458;2023-03-01T13:43:44;15.30;;;9.68;;
73729;SDS011;62036;48.128;16.458;2023-03-01T13:46:15;14.25;;;8.82;;
73729;SDS011;62036;48.128;16.458;2023-03-01T13:48:42;14.23;;;8.88;;
73729;SDS011;62036;48.128;16.458;2023-03-01T13:51:10;12.40;;;8.52;;
73729;SDS011;62036;48.128;16.458;2023-03-01T13:53:42;16.80;;;9.32;;
73729;SDS011;62036;48.128;16.458;2023-03-01T13:56:10;18.48;;;8.65;;
73729;SDS011;62036;48.128;16.458;2023-03-01T13:58:48;15.45;;;9.93;;
73729;SDS011;62036;48.128;16.458;2023-03-01T14:01:21;14.50;;;8.82;;
73729;SDS011;62036;48.128;16.458;2023-03-01T14:03:48;13.60;;;8.05;;
73729;SDS011;62036;48.128;16.458;2023-03-01T14:06:21;15.70;;;8.15;;
73729;SDS011;62036;48.128;16.458;2023-03-01T14:08:48;15.45;;;8.23;;
73729;SDS011;62036;48.128;16.458;2023-03-01T14:16:25;18.38;;;8.90;;
73729;SDS011;62036;48.128;16.458;2023-03-01T14:21:26;18.00;;;10.60;;
73729;SDS011;62036;48.128;16.458;2023-03-01T14:23:53;17.10;;;10.07;;
73729;SDS011;62036;48.128;16.458;2023-03-01T14:26:22;18.30;;;9.95;;
73729;SDS011;62036;48.128;16.458;2023-03-01T14:28:48;17.35;;;10.10;;
73729;SDS011;62036;48.128;16.458;2023-03-01T14:34:02;18.90;;;11.55;;
73729;SDS011;62036;48.128;16.458;2023-03-01T14:36:29;18.67;;;11.68;;
73729;SDS011;62036;48.128;16.458;2023-03-01T14:38:55;21.20;;;11.13;;
73729;SDS011;62036;48.128;16.458;2023-03-01T14:41:29;21.33;;;11.88;;
73729;SDS011;62036;48.128;16.458;2023-03-01T14:43:57;24.08;;;14.13;;
73729;SDS011;62036;48.128;16.458;2023-03-01T14:46:43;18.17;;;10.25;;
73729;SDS011;62036;48.128;16.458;2023-03-01T14:51:39;19.20;;;12.00;;
73729;SDS011;62036;48.128;16.458;2023-03-01T14:54:18;19.05;;;10.57;;
73729;SDS011;62036;48.128;16.458;2023-03-01T14:56:46;16.83;;;10.15;;
73729;SDS011;62036;48.128;16.458;2023-03-01T14:59:12;19.33;;;10.88;;
73729;SDS011;62036;48.128;16.458;2023-03-01T15:01:39;19.58;;;11.02;;
73729;SDS011;62036;48.128;16.458;2023-03-01T15:04:06;17.30;;;10.60;;
73729;SDS011;62036;48.128;16.458;2023-03-01T15:06:34;16.73;;;11.65;;
73729;SDS011;62036;48.128;16.458;2023-03-01T15:09:01;19.45;;;11.30;;
73729;SDS011;62036;48.128;16.458;2023-03-01T15:11:29;16.13;;;10.10;;
73729;SDS011;62036;48.128;16.458;2023-03-01T15:13:55;17.67;;;10.35;;
73729;SDS011;62036;48.128;16.458;2023-03-01T15:18:52;20.27;;;12.13;;
73729;SDS011;62036;48.128;16.458;2023-03-01T15:21:20;22.35;;;11.10;;
73729;SDS011;62036;48.128;16.458;2023-03-01T15:23:52;16.85;;;10.57;;
73729;SDS011;62036;48.128;16.458;2023-03-01T15:26:23;19.25;;;10.80;;
73729;SDS011;62036;48.128;16.458;2023-03-01T15:28:50;20.45;;;11.68;;
73729;SDS011;62036;48.128;16.458;2023-03-01T15:33:42;21.50;;;11.50;;
73729;SDS011;62036;48.128;16.458;2023-03-01T15:38:57;19.63;;;12.52;;
73729;SDS011;62036;48.128;16.458;2023-03-01T15:41:29;23.52;;;11.82;;
73729;SDS011;62036;48.128;16.458;2023-03-01T15:43:59;21.52;;;13.15;;
73729;SDS011;62036;48.128;16.458;2023-03-01T15:46:29;19.75;;;11.32;;
73729;SDS011;62036;48.128;16.458;2023-03-01T15:48:57;22.23;;;12.40;;
73729;SDS011;62036;48.128;16.458;2023-03-01T15:51:27;21.17;;;10.68;;
73729;SDS011;62036;48.128;16.458;2023-03-01T15:53:54;21.45;;;10.82;;
73729;SDS011;62036;48.128;16.458;2023-03-01T15:56:21;22.15;;;13.68;;
73729;SDS011;62036;48.128;16.458;2023-03-01T15:58:47;20.45;;;11.40;;
73729;SDS011;62036;48.128;16.458;2023-03-01T16:01:14;21.55;;;11.48;;
73729;SDS011;62036;48.128;16.458;2023-03-01T16:03:41;20.00;;;10.15;;
73729;SDS011;62036;48.128;16.458;2023-03-01T16:06:10;20.48;;;12.55;;
73729;SDS011;62036;48.128;16.458;2023-03-01T16:08:37;21.35;;;11.05;;
73729;SDS011;62036;48.128;16.458;2023-03-01T16:11:09;22.52;;;11.35;;
73729;SDS011;62036;48.128;16.458;2023-03-01T16:13:36;17.27;;;9.70;;
73729;SDS011;62036;48.128;16.458;2023-03-01T16:16:02;21.27;;;11.55;;
73729;SDS011;62036;48.128;16.458;2023-03-01T16:18:29;17.17;;;9.80;;
73729;SDS011;62036;48.128;16.458;2023-03-01T16:20:55;21.40;;;12.55;;
73729;SDS011;62036;48.128;16.458;2023-03-01T16:23:21;18.33;;;10.48;;
73729;SDS011;62036;48.128;16.458;2023-03-01T16:25:49;21.25;;;10.68;;
73729;SDS011;62036;48.128;16.458;2023-03-01T16:28:15;20.27;;;10.07;;
73729;SDS011;62036;48.128;16.458;2023-03-01T16:30:45;20.85;;;11.82;;
73729;SDS011;62036;48.128;16.458;2023-03-01T16:33:11;19.55;;;11.25;;
73729;SDS011;62036;48.128;16.458;2023-03-01T16:35:39;20.90;;;11.45;;
73729;SDS011;62036;48.128;16.458;2023-03-01T16:38:05;17.95;;;10.80;;
73729;SDS011;62036;48.128;16.458;2023-03-01T16:40:31;19.92;;;10.60;;
73729;SDS011;62036;48.128;16.458;2023-03-01T16:42:58;19.77;;;10.65;;
73729;SDS011;62036;48.128;16.458;2023-03-01T16:45:26;19.48;;;9.77;;
73729;SDS011;62036;48.128;16.458;2023-03-01T16:47:53;20.50;;;10.95;;
73729;SDS011;62036;48.128;16.458;2023-03-01T16:50:19;18.73;;;9.73;;
73729;SDS011;62036;48.128;16.458;2023-03-01T16:52:45;18.50;;;10.98;;
73729;SDS011;62036;48.128;16.458;2023-03-01T16:55:11;17.23;;;9.65;;
73729;SDS011;62036;48.128;16.458;2023-03-01T16:57:37;20.95;;;10.55;;
73729;SDS011;62036;48.128;16.458;2023-03-01T17:00:06;19.80;;;10.40;;
73729;SDS011;62036;48.128;16.458;2023-03-01T17:02:36;20.70;;;10.38;;
73729;SDS011;62036;48.128;16.458;2023-03-01T17:05:02;22.58;;;10.90;;
73729;SDS011;62036;48.128;16.458;2023-03-01T17:07:29;19.65;;;11.05;;
73729;SDS011;62036;48.128;16.458;2023-03-01T17:09:58;20.70;;;12.18;;
73729;SDS011;62036;48.128;16.458;2023-03-01T17:12:24;19.92;;;10.55;;
73729;SDS011;62036;48.128;16.458;2023-03-01T17:14:50;20.13;;;11.15;;
73729;SDS011;62036;48.128;16.458;2023-03-01T17:17:16;20.98;;;10.98;;
73729;SDS011;62036;48.128;16.458;2023-03-01T17:19:42;20.95;;;12.43;;
73729;SDS011;62036;48.128;16.458;2023-03-01T17:22:11;20.75;;;10.77;;
73729;SDS011;62036;48.128;16.458;2023-03-01T17:24:41;22.25;;;10.35;;
73729;SDS011;62036;48.128;16.458;2023-03-01T17:27:08;22.77;;;11.38;;